Time;durP1;ratioP1;P1;durP2;ratioP2;P2;SDS_P1;SDS_P2;PMS_P1;PMS_P2;Temp;Humidity;BMP_temperature;BMP_pressure;BME280_temperature;BME280_humidity;BME280_pressure;Samples;Min_cycle;Max_cycle;Signal;HPM_P1;HPM_P2
2022/08/08 00:00:12;;;;;;;1.45;0.90;;;24.90;44.40;;;;;;5059388;28;20044;-65
2022/08/08 00:02:46;;;;;;;0.88;0.60;;;24.90;44.40;;;;;;5061812;28;20036;-65
2022/08/08 00:05:24;;;;;;;0.70;0.70;;;24.90;44.40;;;;;;5062430;28;20535;-65
2022/08/08 00:08:08;;;;;;;0.98;0.80;;;24.90;44.40;;;;;;5061064;28;20029;-65
2022/08/08 00:11:14;;;;;;;0.85;0.70;;;24.90;44.40;;;;;;5059355;28;20425;-65
2022/08/08 00:13:51;;;;;;;0.88;0.60;;;24.90;44.40;;;;;;5060060;28;20563;-65
2022/08/08 00:16:28;;;;;;;1.15;0.70;;;24.90;44.40;;;;;;5059001;28;20395;-65
2022/08/08 00:19:11;;;;;;;1.13;0.80;;;24.90;44.50;;;;;;5062607;28;20028;-65
2022/08/08 00:21:44;;;;;;;1.00;0.70;;;24.90;44.40;;;;;;5060392;28;20502;-65
2022/08/08 00:24:15;;;;;;;0.75;0.65;;;24.90;44.40;;;;;;5061828;28;20023;-65
2022/08/08 00:26:47;;;;;;;0.80;0.65;;;24.90;44.50;;;;;;5061846;28;20037;-65
2022/08/08 00:29:22;;;;;;;1.02;0.73;;;24.90;44.50;;;;;;5059196;28;20056;-66
2022/08/08 00:31:52;;;;;;;1.27;0.80;;;24.90;44.40;;;;;;5059047;28;20530;-65
2022/08/08 00:37:48;;;;;;;0.73;0.70;;;24.80;44.40;;;;;;5060716;28;19938;-65
2022/08/08 00:40:28;;;;;;;0.98;0.70;;;24.90;44.40;;;;;;5059202;28;20025;-65
2022/08/08 00:43:24;;;;;;;1.13;0.80;;;24.90;44.50;;;;;;5060210;28;20056;-65
2022/08/08 00:46:37;;;;;;;1.15;0.60;;;24.80;44.40;;;;;;5060801;28;20047;-65
2022/08/08 00:49:40;;;;;;;0.70;0.70;;;24.80;44.40;;;;;;4979099;28;20521;-65
2022/08/08 00:52:30;;;;;;;1.13;0.70;;;24.80;44.40;;;;;;4980681;28;20034;-65
2022/08/08 00:55:33;;;;;;;0.75;0.70;;;24.80;44.40;;;;;;5056944;28;20047;-65
2022/08/08 00:58:42;;;;;;;0.65;0.65;;;24.80;44.40;;;;;;5060022;28;20051;-65
2022/08/08 01:01:28;;;;;;;0.93;0.80;;;24.80;44.40;;;;;;5040047;28;20511;-65
2022/08/08 01:04:27;;;;;;;1.35;0.80;;;24.80;44.40;;;;;;5058928;28;20333;-65
2022/08/08 01:07:24;;;;;;;0.68;0.60;;;24.80;44.40;;;;;;5060519;28;20032;-65
2022/08/08 01:10:27;;;;;;;1.00;0.70;;;24.80;44.40;;;;;;5060512;28;20020;-65
2022/08/08 01:12:58;;;;;;;0.88;0.70;;;24.80;44.40;;;;;;5057864;28;20067;-65
2022/08/08 01:16:00;;;;;;;0.90;0.77;;;24.80;44.50;;;;;;5060588;28;20032;-65
2022/08/08 01:18:47;;;;;;;0.85;0.80;;;24.80;44.40;;;;;;5061029;28;20044;-65
2022/08/08 01:21:28;;;;;;;0.95;0.70;;;24.80;44.50;;;;;;5061378;28;20071;-65
2022/08/08 01:24:16;;;;;;;0.82;0.80;;;24.80;44.50;;;;;;5060682;28;20434;-65
2022/08/08 01:26:57;;;;;;;0.82;0.70;;;24.80;44.50;;;;;;5061160;28;20464;-65
2022/08/08 01:29:40;;;;;;;0.73;0.70;;;24.80;44.50;;;;;;5060336;28;20047;-65
2022/08/08 01:32:33;;;;;;;0.70;0.70;;;24.80;44.50;;;;;;5059593;28;20036;-65
2022/08/08 01:35:18;;;;;;;0.63;0.63;;;24.80;44.50;;;;;;5060892;28;20032;-65
2022/08/08 01:38:21;;;;;;;0.88;0.70;;;24.80;44.50;;;;;;5059366;28;20400;-65
2022/08/08 01:41:08;;;;;;;1.00;0.70;;;24.80;44.50;;;;;;5057728;28;20028;-65
2022/08/08 01:44:19;;;;;;;0.70;0.70;;;24.80;44.50;;;;;;5058821;28;20385;-65
2022/08/08 01:47:02;;;;;;;1.48;0.90;;;24.80;44.50;;;;;;5060471;28;20020;-65
2022/08/08 01:50:05;;;;;;;1.02;0.70;;;24.80;44.50;;;;;;5058106;28;20484;-65
2022/08/08 01:52:45;;;;;;;1.33;0.70;;;24.80;44.50;;;;;;5059541;28;20032;-65
2022/08/08 01:55:13;;;;;;;;;;;24.80;44.50;;;;;;5058485;28;20499;-65
2022/08/08 01:58:02;;;;;;;1.00;0.80;;;24.80;44.50;;;;;;5062186;28;19916;-65
2022/08/08 02:00:42;;;;;;;1.05;0.70;;;24.80;44.50;;;;;;5062132;28;20048;-65
2022/08/08 02:03:28;;;;;;;1.30;0.65;;;24.80;44.50;;;;;;5062519;28;20036;-65
2022/08/08 02:06:19;;;;;;;0.63;0.63;;;24.80;44.50;;;;;;5063288;28;20063;-64
2022/08/08 02:08:59;;;;;;;0.93;0.73;;;24.80;44.50;;;;;;5062361;28;20081;-65
2022/08/08 02:11:33;;;;;;;0.68;0.68;;;24.80;44.50;;;;;;5060922;28;20507;-65
2022/08/08 02:14:34;;;;;;;0.93;0.80;;;24.80;44.50;;;;;;5062098;28;20028;-65
2022/08/08 02:17:25;;;;;;;1.08;0.70;;;24.80;44.50;;;;;;5043954;28;20471;-63
2022/08/08 02:20:01;;;;;;;1.00;0.70;;;24.80;44.50;;;;;;5064707;28;20400;-65
2022/08/08 02:22:35;;;;;;;1.42;0.70;;;24.80;44.50;;;;;;5063440;28;20029;-65
2022/08/08 02:25:07;;;;;;;0.98;0.80;;;24.80;44.50;;;;;;5064149;28;20619;-65
2022/08/08 02:27:51;;;;;;;0.90;0.70;;;24.70;44.50;;;;;;5063441;28;20143;-65
2022/08/08 02:30:21;;;;;;;0.82;0.70;;;24.70;44.50;;;;;;5062237;28;20586;-65
2022/08/08 02:32:55;;;;;;;0.60;0.60;;;24.70;44.50;;;;;;5060416;28;20493;-65
2022/08/08 02:35:46;;;;;;;0.60;0.60;;;24.70;44.50;;;;;;5061582;28;20115;-65
2022/08/08 02:38:20;;;;;;;0.60;0.60;;;24.80;44.50;;;;;;5063629;28;20021;-65
2022/08/08 02:41:04;;;;;;;0.65;0.65;;;24.70;44.50;;;;;;5064095;28;20021;-65
2022/08/08 02:43:52;;;;;;;1.38;0.80;;;24.70;44.50;;;;;;5060515;28;20369;-65
2022/08/08 02:46:23;;;;;;;0.70;0.70;;;24.70;44.50;;;;;;5063733;28;20478;-65
2022/08/08 02:49:01;;;;;;;1.35;0.70;;;24.70;44.50;;;;;;5062258;28;20048;-64
2022/08/08 02:51:52;;;;;;;0.68;0.68;;;24.80;44.50;;;;;;5063354;28;20039;-65
2022/08/08 02:54:40;;;;;;;0.90;0.70;;;24.70;44.50;;;;;;5062963;28;20029;-65
2022/08/08 02:57:27;;;;;;;0.75;0.70;;;24.70;44.50;;;;;;5062117;28;20025;-64
2022/08/08 03:00:22;;;;;;;0.85;0.70;;;24.70;44.50;;;;;;5061533;28;20021;-65
2022/08/08 03:03:00;;;;;;;0.70;0.70;;;24.70;44.50;;;;;;5061974;28;20063;-65
2022/08/08 03:05:43;;;;;;;1.00;0.80;;;24.70;44.50;;;;;;5061827;28;20352;-65
2022/08/08 03:08:46;;;;;;;0.60;0.60;;;24.70;44.50;;;;;;5062722;28;20476;-65
2022/08/08 03:11:38;;;;;;;0.63;0.63;;;24.70;44.50;;;;;;5060757;28;20573;-65
2022/08/08 03:14:26;;;;;;;0.70;0.65;;;24.70;44.50;;;;;;5061470;28;20215;-65
2022/08/08 03:17:08;;;;;;;0.82;0.70;;;24.70;44.50;;;;;;5060527;28;20036;-65
2022/08/08 03:20:20;;;;;;;0.95;0.60;;;24.70;44.50;;;;;;5042601;28;20483;-65
2022/08/08 03:22:50;;;;;;;0.60;0.60;;;24.70;44.50;;;;;;5048679;28;20112;-65
2022/08/08 03:25:19;;;;;;;0.50;0.50;;;24.70;44.50;;;;;;5062551;28;20021;-65
2022/08/08 03:27:48;;;;;;;0.57;0.57;;;24.70;44.50;;;;;;5061787;28;20024;-65
2022/08/08 03:30:15;;;;;;;0.55;0.55;;;24.70;44.50;;;;;;5060687;28;20052;-65
2022/08/08 03:35:27;;;;;;;0.57;0.57;;;24.70;45.00;;;;;;5060481;28;20031;-65
2022/08/08 03:37:52;;;;;;;0.63;0.63;;;24.70;44.50;;;;;;5061748;28;20067;-65
2022/08/08 03:40:21;;;;;;;0.95;0.75;;;24.70;45.00;;;;;;5060991;28;20194;-65
2022/08/08 03:42:48;;;;;;;0.68;0.60;;;24.70;44.50;;;;;;5059329;28;20127;-65
2022/08/08 03:45:19;;;;;;;0.63;0.63;;;24.70;44.50;;;;;;5061258;28;20128;-65
2022/08/08 03:48:14;;;;;;;0.70;0.65;;;24.70;44.50;;;;;;5060540;28;20039;-65
2022/08/08 03:50:49;;;;;;;0.65;0.65;;;24.70;44.50;;;;;;5048568;28;20042;-65
2022/08/08 03:53:18;;;;;;;0.60;0.50;;;24.70;44.50;;;;;;5059868;28;20024;-65
2022/08/08 03:55:45;;;;;;;;;;;24.70;44.50;;;;;;5059864;28;20028;-64
2022/08/08 03:58:22;;;;;;;0.75;0.70;;;24.70;44.50;;;;;;5060554;28;19962;-64
2022/08/08 04:00:55;;;;;;;0.60;0.60;;;24.70;44.50;;;;;;5060025;28;20036;-65
2022/08/08 04:03:22;;;;;;;0.60;0.60;;;24.70;44.50;;;;;;5060862;28;20028;-64
2022/08/08 04:05:48;;;;;;;0.60;0.60;;;24.70;44.50;;;;;;5061197;28;20458;-65
2022/08/08 04:08:22;;;;;;;0.70;0.60;;;24.60;44.40;;;;;;5060993;28;20039;-65
2022/08/08 04:10:49;;;;;;;0.60;0.60;;;24.60;44.50;;;;;;5060516;28;20388;-65
2022/08/08 04:13:16;;;;;;;1.00;0.80;;;24.70;44.30;;;;;;5060631;28;20427;-65
2022/08/08 04:15:42;;;;;;;1.00;0.70;;;24.60;43.60;;;;;;5061025;28;20040;-64
2022/08/08 04:18:08;;;;;;;1.10;0.90;;;24.60;43.50;;;;;;5061814;28;20163;-65
2022/08/08 04:20:34;;;;;;;0.95;0.80;;;24.60;43.40;;;;;;5059782;28;20451;-65
2022/08/08 04:22:59;;;;;;;1.10;0.90;;;24.60;43.10;;;;;;5060388;28;20033;-65
2022/08/08 04:25:25;;;;;;;1.67;0.90;;;24.60;42.80;;;;;;5059985;28;20462;-65
2022/08/08 04:27:51;;;;;;;1.63;1.17;;;24.60;42.50;;;;;;5060536;28;20029;-66
2022/08/08 04:30:17;;;;;;;1.40;1.00;;;24.50;42.30;;;;;;5060576;28;20047;-65
2022/08/08 04:32:42;;;;;;;1.55;1.02;;;24.50;41.80;;;;;;5060180;28;20379;-65
2022/08/08 04:35:08;;;;;;;1.13;1.00;;;24.50;42.10;;;;;;5060834;28;20039;-65
2022/08/08 04:37:34;;;;;;;1.50;0.90;;;24.50;42.20;;;;;;5060056;28;20087;-65
2022/08/08 04:40:00;;;;;;;1.55;1.00;;;24.40;42.20;;;;;;5062023;28;20071;-64
2022/08/08 04:42:27;;;;;;;2.47;1.10;;;24.40;42.00;;;;;;5060505;28;20029;-64
2022/08/08 04:44:56;;;;;;;1.48;1.08;;;24.40;42.10;;;;;;5059858;28;20032;-65
2022/08/08 04:47:21;;;;;;;2.27;1.20;;;24.40;42.10;;;;;;5059973;28;20067;-65
2022/08/08 04:49:47;;;;;;;1.95;1.10;;;24.40;41.90;;;;;;5061082;28;20262;-65
2022/08/08 04:52:12;;;;;;;1.48;0.98;;;24.40;41.90;;;;;;5061134;28;20438;-65
2022/08/08 04:54:38;;;;;;;2.53;1.20;;;24.30;41.60;;;;;;5059633;28;20039;-65
2022/08/08 04:57:04;;;;;;;1.75;0.90;;;24.30;41.70;;;;;;5061331;28;20035;-65
2022/08/08 04:59:29;;;;;;;2.15;1.02;;;24.30;41.50;;;;;;5058685;28;20115;-65
2022/08/08 05:01:55;;;;;;;1.40;1.00;;;24.30;41.70;;;;;;5060037;28;20029;-65
2022/08/08 05:04:21;;;;;;;0.90;0.80;;;24.30;41.80;;;;;;5060567;28;20024;-65
2022/08/08 05:06:47;;;;;;;1.20;0.88;;;24.20;41.80;;;;;;5060014;28;20020;-65
2022/08/08 05:09:13;;;;;;;1.70;1.00;;;24.20;42.00;;;;;;5060772;28;20372;-65
2022/08/08 05:11:39;;;;;;;1.60;1.10;;;24.20;41.80;;;;;;5060003;28;20048;-64
2022/08/08 05:14:04;;;;;;;1.50;0.98;;;24.10;42.00;;;;;;5060710;28;20036;-66
2022/08/08 05:16:30;;;;;;;3.28;1.30;;;24.00;42.30;;;;;;5060588;28;20512;-65
2022/08/08 05:18:56;;;;;;;3.25;1.52;;;24.10;42.40;;;;;;5059861;28;20476;-65
2022/08/08 05:21:21;;;;;;;3.70;1.95;;;24.10;42.50;;;;;;5060240;28;20024;-64
2022/08/08 05:23:47;;;;;;;3.55;1.38;;;24.10;42.60;;;;;;5060586;28;20368;-65
2022/08/08 05:26:13;;;;;;;3.42;1.55;;;24.00;42.70;;;;;;5060521;28;20479;-65
2022/08/08 05:28:38;;;;;;;2.67;1.20;;;24.00;42.80;;;;;;5060599;28;20025;-65
2022/08/08 05:31:04;;;;;;;4.03;1.38;;;24.00;42.90;;;;;;5059362;28;20087;-64
2022/08/08 05:33:30;;;;;;;3.10;1.38;;;23.90;42.90;;;;;;5062495;28;20502;-66
2022/08/08 05:36:00;;;;;;;4.22;1.50;;;24.00;43.00;;;;;;5064300;28;20414;-65
2022/08/08 05:38:28;;;;;;;4.38;1.40;;;24.00;43.10;;;;;;5064099;28;20032;-65
2022/08/08 05:40:57;;;;;;;2.92;1.50;;;24.00;43.20;;;;;;5063207;28;20105;-65
2022/08/08 05:43:24;;;;;;;3.20;1.33;;;24.00;43.40;;;;;;5065022;28;20102;-65
2022/08/08 05:45:54;;;;;;;2.75;1.30;;;24.00;43.40;;;;;;5063534;28;20036;-65
2022/08/08 05:48:19;;;;;;;2.97;1.42;;;23.90;43.40;;;;;;5045353;28;20029;-65
2022/08/08 05:50:45;;;;;;;2.95;1.17;;;23.90;43.40;;;;;;5063771;28;20090;-65
2022/08/08 05:53:11;;;;;;;1.92;1.20;;;23.90;43.40;;;;;;5063988;28;20052;-65
2022/08/08 05:55:40;;;;;;;1.80;1.10;;;23.90;43.40;;;;;;5063590;28;20043;-65
2022/08/08 05:58:07;;;;;;;2.33;1.23;;;23.90;43.40;;;;;;5062436;28;20021;-65
2022/08/08 06:00:32;;;;;;;2.80;1.20;;;23.90;43.40;;;;;;5063907;28;20116;-65
2022/08/08 06:03:09;;;;;;;2.40;1.20;;;23.90;43.40;;;;;;5062928;28;20167;-65
2022/08/08 06:05:44;;;;;;;2.70;1.20;;;24.00;43.50;;;;;;5063138;28;20545;-64
2022/08/08 06:08:13;;;;;;;3.08;1.25;;;24.00;43.50;;;;;;5062927;28;20024;-65
2022/08/08 06:10:39;;;;;;;2.60;1.23;;;23.90;43.50;;;;;;5062616;28;20082;-65
2022/08/08 06:13:09;;;;;;;2.90;1.30;;;23.90;43.50;;;;;;5045816;28;20053;-65
2022/08/08 06:15:36;;;;;;;2.47;1.25;;;23.90;43.60;;;;;;5042444;28;20171;-65
2022/08/08 06:18:03;;;;;;;2.50;1.20;;;23.90;43.60;;;;;;5040850;28;20119;-65
2022/08/08 06:20:29;;;;;;;1.90;1.05;;;23.90;44.10;;;;;;5043222;28;20032;-65
2022/08/08 06:22:54;;;;;;;2.00;1.20;;;23.90;43.60;;;;;;5042703;28;20029;-64
2022/08/08 06:25:20;;;;;;;1.52;1.00;;;23.90;43.60;;;;;;5043430;28;20476;-65
2022/08/08 06:27:55;;;;;;;1.75;1.02;;;24.00;43.70;;;;;;5042901;28;20034;-65
2022/08/08 06:30:21;;;;;;;2.47;1.42;;;23.90;43.70;;;;;;5039518;28;20029;-65
2022/08/08 06:32:53;;;;;;;1.65;1.08;;;23.90;43.80;;;;;;5022471;28;20018;-66
2022/08/08 06:35:19;;;;;;;1.95;1.10;;;23.90;43.80;;;;;;5022809;28;20029;-66
2022/08/08 06:37:47;;;;;;;1.80;1.08;;;23.90;43.70;;;;;;5021507;28;20473;-65
2022/08/08 06:40:14;;;;;;;2.85;1.38;;;23.90;43.80;;;;;;5022505;28;20489;-64
2022/08/08 06:42:45;;;;;;;1.55;1.00;;;23.90;43.80;;;;;;5022685;28;20034;-64
2022/08/08 06:45:12;;;;;;;2.30;1.15;;;23.90;43.80;;;;;;5020716;28;20034;-64
2022/08/08 06:47:38;;;;;;;1.88;1.17;;;23.90;43.90;;;;;;5021947;28;20195;-65
2022/08/08 06:50:05;;;;;;;1.70;1.08;;;23.90;43.90;;;;;;5023425;28;20108;-65
2022/08/08 06:52:31;;;;;;;1.05;0.90;;;23.90;43.90;;;;;;5022404;28;20444;-65
2022/08/08 06:54:59;;;;;;;2.45;1.13;;;23.90;43.90;;;;;;5022242;28;20037;-65
2022/08/08 06:57:25;;;;;;;2.17;1.10;;;23.90;43.90;;;;;;5022342;28;20022;-65
2022/08/08 06:59:52;;;;;;;2.53;1.17;;;23.90;43.90;;;;;;5023146;28;20616;-65
2022/08/08 07:02:26;;;;;;;1.63;0.95;;;23.90;44.00;;;;;;5040531;28;20065;-65
2022/08/08 07:04:56;;;;;;;2.15;1.13;;;23.90;44.00;;;;;;5040567;28;20129;-65
2022/08/08 07:07:32;;;;;;;1.52;1.10;;;23.90;44.00;;;;;;5042154;28;20499;-65
2022/08/08 07:10:06;;;;;;;2.00;1.00;;;24.00;44.10;;;;;;5041646;28;20033;-64
2022/08/08 07:12:42;;;;;;;1.65;1.10;;;23.90;44.00;;;;;;5039378;28;20417;-65
2022/08/08 07:15:10;;;;;;;1.88;0.98;;;23.90;44.00;;;;;;5041070;28;20385;-65
2022/08/08 07:17:48;;;;;;;1.75;0.93;;;23.90;44.10;;;;;;5042628;28;20037;-65
2022/08/08 07:20:19;;;;;;;1.85;1.17;;;23.90;44.10;;;;;;5042319;28;20041;-65
2022/08/08 07:23:16;;;;;;;2.10;1.17;;;23.90;44.10;;;;;;5042009;28;20022;-65
2022/08/08 07:25:45;;;;;;;1.23;0.90;;;23.90;44.10;;;;;;5041417;28;20475;-65
2022/08/08 07:28:14;;;;;;;1.55;1.00;;;23.90;44.10;;;;;;5041002;28;20512;-65
2022/08/08 07:30:41;;;;;;;1.45;0.95;;;24.00;44.20;;;;;;5043860;28;20033;-65
2022/08/08 07:33:10;;;;;;;1.52;0.90;;;24.00;44.20;;;;;;5061461;28;20040;-65
2022/08/08 07:35:36;;;;;;;;;;;24.00;44.20;;;;;;5062028;28;20040;-65
2022/08/08 07:38:02;;;;;;;1.80;1.00;;;23.90;44.10;;;;;;5061343;28;19912;-65
2022/08/08 07:40:28;;;;;;;1.77;1.00;;;23.90;44.10;;;;;;5060927;28;20036;-65
2022/08/08 07:42:54;;;;;;;1.52;1.10;;;23.90;44.20;;;;;;5061670;28;20060;-65
2022/08/08 07:45:20;;;;;;;1.60;0.88;;;23.90;44.20;;;;;;5061518;28;20021;-65
2022/08/08 07:47:46;;;;;;;2.38;1.17;;;23.90;44.20;;;;;;5060454;28;20108;-65
2022/08/08 07:50:12;;;;;;;1.52;1.00;;;24.00;44.30;;;;;;5062014;28;20131;-65
2022/08/08 07:52:45;;;;;;;1.52;0.93;;;23.90;44.20;;;;;;5062230;28;20031;-64
2022/08/08 07:55:30;;;;;;;1.83;1.08;;;23.90;44.20;;;;;;5061235;28;20483;-65
2022/08/08 07:58:17;;;;;;;2.22;1.10;;;23.90;44.30;;;;;;5061490;28;20052;-65
2022/08/08 08:00:48;;;;;;;1.38;0.93;;;23.90;44.30;;;;;;5058556;28;20112;-65
2022/08/08 08:03:40;;;;;;;1.30;0.82;;;23.90;44.30;;;;;;5060604;28;20052;-65
2022/08/08 08:06:07;;;;;;;1.88;1.00;;;23.90;44.30;;;;;;5061589;28;20115;-65
2022/08/08 08:08:53;;;;;;;2.60;1.10;;;23.90;44.30;;;;;;5061847;28;20032;-65
2022/08/08 08:11:22;;;;;;;1.50;1.00;;;23.90;44.30;;;;;;5060931;28;20047;-65
2022/08/08 08:13:51;;;;;;;1.13;0.93;;;23.90;44.30;;;;;;5061004;28;20032;-65
2022/08/08 08:16:23;;;;;;;1.42;1.00;;;23.90;44.40;;;;;;5061962;28;20033;-65
2022/08/08 08:19:09;;;;;;;2.22;1.00;;;23.90;44.40;;;;;;5061440;28;20028;-65
2022/08/08 08:21:38;;;;;;;1.80;1.02;;;23.90;44.40;;;;;;5060836;28;20024;-65
2022/08/08 08:24:05;;;;;;;1.52;1.00;;;23.90;44.60;;;;;;5060844;28;20028;-65
2022/08/08 08:26:30;;;;;;;1.25;0.90;;;23.90;44.50;;;;;;5059850;28;20036;-65
2022/08/08 08:28:56;;;;;;;1.67;1.02;;;23.90;44.40;;;;;;5061036;28;20044;-65
2022/08/08 08:31:22;;;;;;;1.10;0.93;;;23.90;44.50;;;;;;5060476;28;20057;-65
2022/08/08 08:33:48;;;;;;;2.25;0.98;;;23.90;44.50;;;;;;5060969;28;20429;-65
2022/08/08 08:36:14;;;;;;;2.17;1.10;;;23.90;44.50;;;;;;5060451;28;20032;-65
2022/08/08 08:38:40;;;;;;;1.42;1.10;;;23.90;44.50;;;;;;5060596;28;20031;-65
2022/08/08 08:41:11;;;;;;;2.22;1.08;;;23.90;44.50;;;;;;5060392;28;20036;-65
2022/08/08 08:43:38;;;;;;;1.00;0.80;;;23.90;44.50;;;;;;5059836;28;20032;-65
2022/08/08 08:46:10;;;;;;;1.80;1.00;;;23.90;44.50;;;;;;5060479;28;20033;-65
2022/08/08 08:48:36;;;;;;;1.10;0.90;;;23.90;44.50;;;;;;5059294;28;20056;-65
2022/08/08 08:51:03;;;;;;;1.48;1.00;;;23.90;44.50;;;;;;5060718;28;20445;-64
2022/08/08 08:53:35;;;;;;;1.55;0.80;;;23.90;44.50;;;;;;5060254;28;20112;-65
2022/08/08 08:56:02;;;;;;;1.55;1.00;;;23.90;44.50;;;;;;5041494;28;20223;-65
2022/08/08 08:58:38;;;;;;;1.83;1.20;;;24.00;44.50;;;;;;5060426;28;20050;-65
2022/08/08 09:01:05;;;;;;;1.27;1.00;;;24.00;44.60;;;;;;5060007;28;20448;-66
2022/08/08 09:03:31;;;;;;;1.63;1.00;;;23.90;44.50;;;;;;5060446;28;20048;-65
2022/08/08 09:05:58;;;;;;;1.25;0.93;;;24.00;44.50;;;;;;5061980;28;20024;-65
2022/08/08 09:08:26;;;;;;;1.30;0.90;;;24.00;44.60;;;;;;5062097;28;20017;-65
2022/08/08 09:10:52;;;;;;;1.10;0.80;;;23.90;44.50;;;;;;5063724;28;20105;-65
2022/08/08 09:13:18;;;;;;;1.05;0.85;;;24.00;44.60;;;;;;5043390;28;20049;-65
2022/08/08 09:15:44;;;;;;;1.80;0.90;;;24.00;44.60;;;;;;5044115;28;20386;-65
2022/08/08 09:18:10;;;;;;;1.00;0.80;;;24.00;44.60;;;;;;5044085;28;20048;-64
2022/08/08 09:20:38;;;;;;;1.35;0.93;;;24.00;44.50;;;;;;5044559;28;20025;-65
2022/08/08 09:23:04;;;;;;;1.23;0.87;;;24.00;44.60;;;;;;5044293;28;20021;-65
2022/08/08 09:25:34;;;;;;;1.33;0.90;;;24.00;44.60;;;;;;5044407;28;20613;-62
2022/08/08 09:28:00;;;;;;;1.15;0.85;;;24.00;44.60;;;;;;5044674;28;20065;-65
2022/08/08 09:30:29;;;;;;;1.20;0.90;;;24.00;44.60;;;;;;5043882;28;20500;-65
2022/08/08 09:32:56;;;;;;;1.42;0.90;;;24.00;44.60;;;;;;5043382;28;20378;-65
2022/08/08 09:35:27;;;;;;;1.55;1.00;;;24.00;44.60;;;;;;5044357;28;20108;-65
2022/08/08 09:38:01;;;;;;;1.70;1.02;;;24.00;44.60;;;;;;5040912;28;20045;-65
2022/08/08 09:40:29;;;;;;;1.45;0.90;;;24.00;44.60;;;;;;5042755;28;20017;-65
2022/08/08 09:43:19;;;;;;;1.23;0.90;;;24.00;44.60;;;;;;5044003;28;20029;-64
2022/08/08 09:46:00;;;;;;;1.50;1.00;;;24.00;44.60;;;;;;5044380;28;20188;-65
2022/08/08 09:48:32;;;;;;;1.45;1.00;;;24.00;44.60;;;;;;5044021;28;20368;-64
2022/08/08 09:50:58;;;;;;;1.45;0.90;;;24.00;44.60;;;;;;5042617;28;20064;-65
2022/08/08 09:53:40;;;;;;;2.03;1.00;;;24.10;44.60;;;;;;5043891;28;20358;-65
2022/08/08 09:56:08;;;;;;;1.30;0.90;;;24.00;44.50;;;;;;5043159;28;20029;-66
2022/08/08 09:58:39;;;;;;;1.20;0.82;;;24.10;44.60;;;;;;5044432;28;20116;-65
2022/08/08 10:01:09;;;;;;;0.80;0.80;;;24.00;44.50;;;;;;5041405;28;20401;-65
2022/08/08 10:03:36;;;;;;;;;;;24.10;44.60;;;;;;5044588;28;20021;-65
2022/08/08 10:06:22;;;;;;;1.20;0.80;;;24.10;44.60;;;;;;5043667;28;19917;-65
2022/08/08 10:08:49;;;;;;;1.45;0.90;;;24.10;44.60;;;;;;5043091;28;20052;-65
2022/08/08 10:11:22;;;;;;;0.93;0.75;;;24.10;44.60;;;;;;5046668;28;20043;-64
2022/08/08 10:13:57;;;;;;;1.05;0.95;;;24.10;44.60;;;;;;5063170;28;20802;-65
2022/08/08 10:16:24;;;;;;;1.10;0.90;;;24.10;44.60;;;;;;5060483;28;20025;-66
2022/08/08 10:19:00;;;;;;;1.33;0.90;;;24.10;44.60;;;;;;5062778;28;20029;-65
2022/08/08 10:21:31;;;;;;;1.40;0.80;;;24.10;44.70;;;;;;5062769;28;20064;-65
2022/08/08 10:24:02;;;;;;;0.80;0.75;;;24.10;44.70;;;;;;5061917;28;20094;-65
2022/08/08 10:26:39;;;;;;;1.30;0.90;;;24.00;44.60;;;;;;5063280;28;20028;-66
2022/08/08 10:29:10;;;;;;;1.25;0.93;;;24.10;44.70;;;;;;5062248;28;20029;-65
2022/08/08 10:34:23;;;;;;;1.02;0.88;;;24.10;44.70;;;;;;5061857;28;20040;-65
2022/08/08 10:36:50;;;;;;;1.55;0.95;;;24.10;44.70;;;;;;5062232;28;20124;-65
2022/08/08 10:39:21;;;;;;;0.88;0.70;;;24.10;44.70;;;;;;5062958;28;20037;-65
2022/08/08 10:42:03;;;;;;;1.50;0.90;;;24.10;44.70;;;;;;5062481;28;20021;-65
2022/08/08 10:44:39;;;;;;;0.73;0.70;;;24.10;44.70;;;;;;5061050;28;20029;-65
2022/08/08 10:47:18;;;;;;;1.25;1.00;;;24.10;44.70;;;;;;5062148;28;20029;-65
2022/08/08 10:50:02;;;;;;;1.58;1.00;;;24.10;44.70;;;;;;5062368;28;20028;-65
2022/08/08 10:52:32;;;;;;;0.88;0.80;;;24.10;44.70;;;;;;5062964;28;20021;-64
2022/08/08 10:55:12;;;;;;;1.23;0.98;;;24.10;44.60;;;;;;5061622;28;20439;-65
2022/08/08 10:57:43;;;;;;;1.20;0.90;;;24.10;44.60;;;;;;5062070;28;20567;-65
2022/08/08 11:00:12;;;;;;;1.35;0.80;;;24.10;44.70;;;;;;5061560;28;20036;-66
2022/08/08 11:02:38;;;;;;;0.98;0.77;;;24.10;44.70;;;;;;5062702;28;20391;-66
2022/08/08 11:05:08;;;;;;;1.08;0.80;;;24.20;44.70;;;;;;5063795;28;20913;-65
2022/08/08 11:07:36;;;;;;;0.90;0.80;;;24.10;44.70;;;;;;5062605;28;20108;-67
2022/08/08 11:10:13;;;;;;;1.13;0.80;;;24.20;44.70;;;;;;5063163;28;20147;-67
2022/08/08 11:13:08;;;;;;;1.13;0.85;;;24.10;44.70;;;;;;5061633;28;20127;-67
2022/08/08 11:15:34;;;;;;;0.98;0.77;;;24.20;44.70;;;;;;5048863;28;20065;-67
2022/08/08 11:18:00;;;;;;;1.13;0.88;;;24.20;44.70;;;;;;5061186;28;20131;-67
2022/08/08 11:20:27;;;;;;;1.23;0.90;;;24.20;44.70;;;;;;5061895;28;20475;-67
2022/08/08 11:22:58;;;;;;;1.10;1.00;;;24.20;45.20;;;;;;5062732;28;20091;-67
2022/08/08 11:25:29;;;;;;;0.95;0.77;;;24.20;44.70;;;;;;5060526;28;20371;-67
2022/08/08 11:27:57;;;;;;;0.90;0.82;;;24.20;44.70;;;;;;5061414;28;20436;-66
2022/08/08 11:30:26;;;;;;;1.20;0.80;;;24.20;44.70;;;;;;5060029;28;20159;-66
2022/08/08 11:32:55;;;;;;;1.10;0.80;;;24.20;44.70;;;;;;5062888;28;20024;-67
2022/08/08 11:35:22;;;;;;;1.02;0.73;;;24.20;44.70;;;;;;5060522;28;20055;-66
2022/08/08 11:37:48;;;;;;;1.20;0.70;;;24.20;44.80;;;;;;5062156;28;20032;-66
2022/08/08 11:40:14;;;;;;;1.20;0.80;;;24.20;44.80;;;;;;5061030;28;20028;-67
2022/08/08 11:42:41;;;;;;;0.95;0.70;;;24.20;44.80;;;;;;5061990;28;20107;-66
2022/08/08 11:45:09;;;;;;;1.42;0.95;;;24.20;44.80;;;;;;5062367;28;20302;-66
2022/08/08 11:47:35;;;;;;;2.00;0.80;;;24.20;44.80;;;;;;5061810;28;20094;-66
2022/08/08 11:50:29;;;;;;;1.25;0.77;;;24.20;45.30;;;;;;5060980;28;20087;-66
2022/08/08 11:52:55;;;;;;;0.80;0.80;;;24.30;44.90;;;;;;5059355;28;20040;-67
2022/08/08 11:55:25;;;;;;;0.90;0.73;;;24.20;44.80;;;;;;5060755;28;20044;-66
2022/08/08 11:58:07;;;;;;;0.95;0.80;;;24.20;44.80;;;;;;5059806;28;20451;-66
2022/08/08 12:00:33;;;;;;;0.80;0.80;;;24.20;44.80;;;;;;5062184;28;20036;-66
2022/08/08 12:02:59;;;;;;;1.50;0.80;;;24.30;44.90;;;;;;5060126;28;20056;-66
2022/08/08 12:05:39;;;;;;;0.80;0.80;;;24.20;44.90;;;;;;5062195;28;20439;-67
2022/08/08 12:08:05;;;;;;;1.05;0.80;;;24.30;44.90;;;;;;5061068;28;20087;-66
2022/08/08 12:10:31;;;;;;;0.80;0.75;;;24.20;44.90;;;;;;5062133;28;20033;-66
2022/08/08 12:13:03;;;;;;;0.93;0.70;;;24.30;44.90;;;;;;5060299;28;20068;-66
2022/08/08 12:15:32;;;;;;;0.70;0.70;;;24.30;44.90;;;;;;5060537;28;20029;-66
2022/08/08 12:17:59;;;;;;;1.25;0.90;;;24.30;45.00;;;;;;5061564;28;20409;-66
2022/08/08 12:20:38;;;;;;;0.80;0.80;;;24.20;44.90;;;;;;5061291;28;20048;-67
2022/08/08 12:23:04;;;;;;;1.38;0.70;;;24.30;45.00;;;;;;5059907;28;20033;-66
2022/08/08 12:25:32;;;;;;;0.82;0.75;;;24.30;45.00;;;;;;5061264;28;20515;-67
2022/08/08 12:28:14;;;;;;;1.08;0.90;;;24.20;45.00;;;;;;5060009;28;20103;-66
2022/08/08 12:30:41;;;;;;;0.82;0.75;;;24.30;45.00;;;;;;5060193;28;20036;-66
2022/08/08 12:33:26;;;;;;;0.77;0.75;;;24.30;45.00;;;;;;5061174;28;20068;-66
2022/08/08 12:35:52;;;;;;;0.80;0.70;;;24.30;45.00;;;;;;5059497;28;20048;-67
2022/08/08 12:38:18;;;;;;;0.77;0.73;;;24.30;45.00;;;;;;5060810;28;20032;-66
2022/08/08 12:40:46;;;;;;;0.93;0.73;;;24.30;45.00;;;;;;5059724;28;20037;-66
2022/08/08 12:43:14;;;;;;;0.93;0.70;;;24.30;45.00;;;;;;5059669;28;20507;-66
2022/08/08 12:45:42;;;;;;;1.17;0.80;;;24.30;45.00;;;;;;5059323;28;20017;-67
2022/08/08 12:48:22;;;;;;;1.10;0.80;;;24.30;45.00;;;;;;5060803;28;20025;-66
2022/08/08 12:50:53;;;;;;;1.02;0.73;;;24.30;45.00;;;;;;5059409;28;20484;-67
2022/08/08 12:53:32;;;;;;;0.90;0.80;;;24.30;45.00;;;;;;5059741;28;20055;-66
2022/08/08 12:56:06;;;;;;;0.90;0.77;;;24.30;45.00;;;;;;5060807;28;20025;-66
2022/08/08 12:58:46;;;;;;;0.70;0.70;;;24.30;45.00;;;;;;5059987;28;20064;-66
2022/08/08 13:01:12;;;;;;;0.80;0.70;;;24.30;45.00;;;;;;5041223;28;20037;-66
2022/08/08 13:03:47;;;;;;;0.88;0.73;;;24.30;45.00;;;;;;5060866;28;20029;-66
2022/08/08 13:06:18;;;;;;;1.13;0.80;;;24.30;45.00;;;;;;5059957;28;20028;-66
2022/08/08 13:08:44;;;;;;;1.00;0.80;;;24.30;45.10;;;;;;5060931;28;20487;-66
2022/08/08 13:11:25;;;;;;;1.00;0.80;;;24.30;45.00;;;;;;5060677;28;20033;-66
2022/08/08 13:14:04;;;;;;;1.42;0.80;;;24.30;45.00;;;;;;5059917;28;20029;-66
2022/08/08 13:16:33;;;;;;;1.43;0.93;;;24.30;45.00;;;;;;5060775;28;20469;-67
2022/08/08 13:19:02;;;;;;;1.20;0.80;;;24.30;45.00;;;;;;5059993;28;20021;-66
2022/08/08 13:21:29;;;;;;;;;;;24.30;45.10;;;;;;5060566;28;20029;-66
2022/08/08 13:23:55;;;;;;;1.02;0.70;;;24.30;45.10;;;;;;5060943;28;19904;-66
2022/08/08 13:26:21;;;;;;;1.05;0.80;;;24.30;45.10;;;;;;5060707;28;20082;-66
2022/08/08 13:28:47;;;;;;;0.88;0.68;;;24.30;45.10;;;;;;5059886;28;20472;-67